sensor_id;sensor_type;location;lat;lon;timestamp;P1;durP1;ratioP1;P2;durP2;ratioP2
15126;SDS011;7664;52.008;4.748;2023-08-07T00:01:33;7.05;;;1.52;;
15126;SDS011;7664;52.008;4.748;2023-08-07T00:04:03;11.07;;;1.80;;
15126;SDS011;7664;52.008;4.748;2023-08-07T00:06:32;6.07;;;1.67;;
15126;SDS011;7664;52.008;4.748;2023-08-07T00:09:00;9.27;;;1.67;;
15126;SDS011;7664;52.008;4.748;2023-08-07T00:11:29;7.90;;;1.80;;
15126;SDS011;7664;52.008;4.748;2023-08-07T00:13:57;4.13;;;1.50;;
15126;SDS011;7664;52.008;4.748;2023-08-07T00:16:27;8.35;;;1.63;;
15126;SDS011;7664;52.008;4.748;2023-08-07T00:18:55;8.25;;;1.40;;
15126;SDS011;7664;52.008;4.748;2023-08-07T00:21:25;9.93;;;2.47;;
15126;SDS011;7664;52.008;4.748;2023-08-07T00:23:54;5.18;;;1.40;;
15126;SDS011;7664;52.008;4.748;2023-08-07T00:26:22;5.57;;;1.45;;
15126;SDS011;7664;52.008;4.748;2023-08-07T00:28:50;9.88;;;1.60;;
15126;SDS011;7664;52.008;4.748;2023-08-07T00:31:18;8.50;;;2.33;;
15126;SDS011;7664;52.008;4.748;2023-08-07T00:33:47;6.63;;;1.50;;
15126;SDS011;7664;52.008;4.748;2023-08-07T00:36:18;4.82;;;1.50;;
15126;SDS011;7664;52.008;4.748;2023-08-07T00:38:47;6.05;;;1.80;;
15126;SDS011;7664;52.008;4.748;2023-08-07T00:41:16;4.95;;;1.40;;
15126;SDS011;7664;52.008;4.748;2023-08-07T00:43:44;5.70;;;1.88;;
15126;SDS011;7664;52.008;4.748;2023-08-07T00:46:13;6.78;;;2.13;;
15126;SDS011;7664;52.008;4.748;2023-08-07T00:48:42;6.72;;;1.55;;
15126;SDS011;7664;52.008;4.748;2023-08-07T00:51:11;4.82;;;1.95;;
15126;SDS011;7664;52.008;4.748;2023-08-07T00:53:39;8.38;;;1.60;;
15126;SDS011;7664;52.008;4.748;2023-08-07T00:56:09;9.90;;;2.20;;
15126;SDS011;7664;52.008;4.748;2023-08-07T00:58:37;7.32;;;1.98;;
15126;SDS011;7664;52.008;4.748;2023-08-07T01:01:06;5.47;;;1.75;;
15126;SDS011;7664;52.008;4.748;2023-08-07T01:03:35;6.97;;;1.55;;
15126;SDS011;7664;52.008;4.748;2023-08-07T01:06:04;13.25;;;2.03;;
15126;SDS011;7664;52.008;4.748;2023-08-07T01:08:34;5.30;;;1.60;;
15126;SDS011;7664;52.008;4.748;2023-08-07T01:11:07;7.50;;;2.15;;
15126;SDS011;7664;52.008;4.748;2023-08-07T01:13:40;5.97;;;1.90;;
15126;SDS011;7664;52.008;4.748;2023-08-07T01:16:10;9.70;;;1.98;;
15126;SDS011;7664;52.008;4.748;2023-08-07T01:18:40;9.27;;;1.65;;
15126;SDS011;7664;52.008;4.748;2023-08-07T01:21:16;6.22;;;2.42;;
15126;SDS011;7664;52.008;4.748;2023-08-07T01:23:46;5.85;;;1.80;;
15126;SDS011;7664;52.008;4.748;2023-08-07T01:26:15;5.95;;;1.70;;
15126;SDS011;7664;52.008;4.748;2023-08-07T01:28:46;4.43;;;1.90;;
15126;SDS011;7664;52.008;4.748;2023-08-07T01:31:17;5.20;;;1.95;;
15126;SDS011;7664;52.008;4.748;2023-08-07T01:33:50;7.72;;;2.25;;
15126;SDS011;7664;52.008;4.748;2023-08-07T01:36:22;6.05;;;2.03;;
15126;SDS011;7664;52.008;4.748;2023-08-07T01:38:55;6.20;;;2.28;;
15126;SDS011;7664;52.008;4.748;2023-08-07T01:41:24;9.63;;;2.15;;
15126;SDS011;7664;52.008;4.748;2023-08-07T01:43:53;8.98;;;1.90;;
15126;SDS011;7664;52.008;4.748;2023-08-07T01:46:22;6.18;;;2.25;;
15126;SDS011;7664;52.008;4.748;2023-08-07T01:48:51;11.00;;;2.08;;
15126;SDS011;7664;52.008;4.748;2023-08-07T01:51:20;6.30;;;2.42;;
15126;SDS011;7664;52.008;4.748;2023-08-07T01:53:49;10.25;;;2.45;;
15126;SDS011;7664;52.008;4.748;2023-08-07T01:56:18;5.13;;;1.98;;
15126;SDS011;7664;52.008;4.748;2023-08-07T01:58:47;10.00;;;1.98;;
15126;SDS011;7664;52.008;4.748;2023-08-07T02:01:15;7.20;;;2.50;;
15126;SDS011;7664;52.008;4.748;2023-08-07T02:03:44;5.28;;;1.75;;
15126;SDS011;7664;52.008;4.748;2023-08-07T02:06:12;6.05;;;1.77;;
15126;SDS011;7664;52.008;4.748;2023-08-07T02:08:40;5.88;;;1.80;;
15126;SDS011;7664;52.008;4.748;2023-08-07T02:11:11;7.88;;;2.03;;
15126;SDS011;7664;52.008;4.748;2023-08-07T02:13:40;7.03;;;1.52;;
15126;SDS011;7664;52.008;4.748;2023-08-07T02:16:09;5.78;;;1.70;;
15126;SDS011;7664;52.008;4.748;2023-08-07T02:18:37;6.95;;;1.85;;
15126;SDS011;7664;52.008;4.748;2023-08-07T02:21:05;6.95;;;1.90;;
15126;SDS011;7664;52.008;4.748;2023-08-07T02:23:34;4.57;;;1.70;;
15126;SDS011;7664;52.008;4.748;2023-08-07T02:26:05;9.65;;;2.58;;
15126;SDS011;7664;52.008;4.748;2023-08-07T02:28:33;9.00;;;2.30;;
15126;SDS011;7664;52.008;4.748;2023-08-07T02:31:03;9.30;;;2.17;;
15126;SDS011;7664;52.008;4.748;2023-08-07T02:33:32;3.72;;;1.67;;
15126;SDS011;7664;52.008;4.748;2023-08-07T02:36:00;5.43;;;1.70;;
15126;SDS011;7664;52.008;4.748;2023-08-07T02:38:30;5.70;;;1.67;;
15126;SDS011;7664;52.008;4.748;2023-08-07T02:41:01;9.43;;;2.05;;
15126;SDS011;7664;52.008;4.748;2023-08-07T02:43:29;5.80;;;1.80;;
15126;SDS011;7664;52.008;4.748;2023-08-07T02:45:59;4.72;;;1.85;;
15126;SDS011;7664;52.008;4.748;2023-08-07T02:48:29;9.30;;;2.10;;
15126;SDS011;7664;52.008;4.748;2023-08-07T02:50:57;8.48;;;1.80;;
15126;SDS011;7664;52.008;4.748;2023-08-07T02:53:25;7.18;;;2.05;;
15126;SDS011;7664;52.008;4.748;2023-08-07T02:55:54;5.18;;;1.80;;
15126;SDS011;7664;52.008;4.748;2023-08-07T02:58:22;5.90;;;1.95;;
15126;SDS011;7664;52.008;4.748;2023-08-07T03:00:50;7.72;;;1.92;;
15126;SDS011;7664;52.008;4.748;2023-08-07T03:03:19;6.35;;;1.63;;
15126;SDS011;7664;52.008;4.748;2023-08-07T03:05:49;4.82;;;1.63;;
15126;SDS011;7664;52.008;4.748;2023-08-07T03:08:17;6.38;;;1.90;;
15126;SDS011;7664;52.008;4.748;2023-08-07T03:10:49;6.45;;;1.80;;
15126;SDS011;7664;52.008;4.748;2023-08-07T03:13:18;5.53;;;1.23;;
15126;SDS011;7664;52.008;4.748;2023-08-07T03:15:46;3.63;;;1.35;;
15126;SDS011;7664;52.008;4.748;2023-08-07T03:18:16;5.65;;;1.08;;
15126;SDS011;7664;52.008;4.748;2023-08-07T03:20:44;7.43;;;1.33;;
15126;SDS011;7664;52.008;4.748;2023-08-07T03:23:14;4.85;;;1.40;;
15126;SDS011;7664;52.008;4.748;2023-08-07T03:25:42;5.03;;;1.50;;
15126;SDS011;7664;52.008;4.748;2023-08-07T03:28:11;5.93;;;1.55;;
15126;SDS011;7664;52.008;4.748;2023-08-07T03:30:39;4.53;;;1.50;;
15126;SDS011;7664;52.008;4.748;2023-08-07T03:33:08;6.57;;;1.88;;
15126;SDS011;7664;52.008;4.748;2023-08-07T03:35:38;6.03;;;1.90;;
15126;SDS011;7664;52.008;4.748;2023-08-07T03:38:08;5.93;;;1.85;;
15126;SDS011;7664;52.008;4.748;2023-08-07T03:40:38;7.97;;;1.42;;
15126;SDS011;7664;52.008;4.748;2023-08-07T03:43:07;3.78;;;1.60;;
15126;SDS011;7664;52.008;4.748;2023-08-07T03:45:36;7.38;;;1.75;;
15126;SDS011;7664;52.008;4.748;2023-08-07T03:48:05;6.25;;;1.90;;
15126;SDS011;7664;52.008;4.748;2023-08-07T03:50:34;7.43;;;1.85;;
15126;SDS011;7664;52.008;4.748;2023-08-07T03:53:03;8.65;;;2.28;;
15126;SDS011;7664;52.008;4.748;2023-08-07T03:55:38;7.60;;;2.35;;
15126;SDS011;7664;52.008;4.748;2023-08-07T03:58:08;7.57;;;1.70;;
15126;SDS011;7664;52.008;4.748;2023-08-07T04:00:36;8.43;;;1.88;;
15126;SDS011;7664;52.008;4.748;2023-08-07T04:03:04;3.72;;;1.13;;
15126;SDS011;7664;52.008;4.748;2023-08-07T04:05:33;6.22;;;2.20;;
15126;SDS011;7664;52.008;4.748;2023-08-07T04:08:02;8.13;;;2.00;;
15126;SDS011;7664;52.008;4.748;2023-08-07T04:10:30;6.03;;;1.92;;
15126;SDS011;7664;52.008;4.748;2023-08-07T04:13:00;7.35;;;2.03;;
15126;SDS011;7664;52.008;4.748;2023-08-07T04:15:28;5.13;;;1.98;;
15126;SDS011;7664;52.008;4.748;2023-08-07T04:17:56;7.72;;;2.00;;
15126;SDS011;7664;52.008;4.748;2023-08-07T04:20:25;6.45;;;1.92;;
15126;SDS011;7664;52.008;4.748;2023-08-07T04:22:53;10.52;;;2.95;;
15126;SDS011;7664;52.008;4.748;2023-08-07T04:25:22;5.72;;;2.03;;
15126;SDS011;7664;52.008;4.748;2023-08-07T04:27:50;11.98;;;2.10;;
15126;SDS011;7664;52.008;4.748;2023-08-07T04:30:20;9.05;;;2.65;;
15126;SDS011;7664;52.008;4.748;2023-08-07T04:32:48;5.55;;;2.03;;
15126;SDS011;7664;52.008;4.748;2023-08-07T04:35:17;7.97;;;2.10;;
15126;SDS011;7664;52.008;4.748;2023-08-07T04:37:45;6.18;;;1.90;;
15126;SDS011;7664;52.008;4.748;2023-08-07T04:40:13;10.95;;;2.10;;
15126;SDS011;7664;52.008;4.748;2023-08-07T04:42:42;10.23;;;1.98;;
15126;SDS011;7664;52.008;4.748;2023-08-07T04:45:10;9.73;;;2.63;;
15126;SDS011;7664;52.008;4.748;2023-08-07T04:47:40;8.55;;;1.80;;
15126;SDS011;7664;52.008;4.748;2023-08-07T04:50:08;5.30;;;2.03;;
15126;SDS011;7664;52.008;4.748;2023-08-07T04:52:37;8.10;;;2.13;;
15126;SDS011;7664;52.008;4.748;2023-08-07T04:55:05;7.45;;;1.85;;
15126;SDS011;7664;52.008;4.748;2023-08-07T04:57:34;7.97;;;1.80;;
15126;SDS011;7664;52.008;4.748;2023-08-07T05:00:03;9.38;;;2.15;;
15126;SDS011;7664;52.008;4.748;2023-08-07T05:02:32;5.28;;;1.90;;
15126;SDS011;7664;52.008;4.748;2023-08-07T05:05:02;6.85;;;2.08;;
15126;SDS011;7664;52.008;4.748;2023-08-07T05:07:32;8.02;;;2.17;;
15126;SDS011;7664;52.008;4.748;2023-08-07T05:10:01;9.50;;;1.92;;
15126;SDS011;7664;52.008;4.748;2023-08-07T05:12:30;7.40;;;2.03;;
15126;SDS011;7664;52.008;4.748;2023-08-07T05:14:58;11.13;;;2.35;;
15126;SDS011;7664;52.008;4.748;2023-08-07T05:17:27;7.82;;;2.17;;
15126;SDS011;7664;52.008;4.748;2023-08-07T05:19:55;7.88;;;1.63;;
15126;SDS011;7664;52.008;4.748;2023-08-07T05:22:24;9.55;;;2.03;;
15126;SDS011;7664;52.008;4.748;2023-08-07T05:24:53;4.38;;;1.40;;
15126;SDS011;7664;52.008;4.748;2023-08-07T05:27:21;3.35;;;1.02;;
15126;SDS011;7664;52.008;4.748;2023-08-07T05:29:49;2.88;;;1.00;;
15126;SDS011;7664;52.008;4.748;2023-08-07T05:32:18;2.80;;;1.08;;
15126;SDS011;7664;52.008;4.748;2023-08-07T05:34:46;5.43;;;1.50;;
15126;SDS011;7664;52.008;4.748;2023-08-07T05:37:15;6.55;;;1.70;;
15126;SDS011;7664;52.008;4.748;2023-08-07T05:39:44;8.13;;;2.05;;
15126;SDS011;7664;52.008;4.748;2023-08-07T05:42:13;5.45;;;1.40;;
15126;SDS011;7664;52.008;4.748;2023-08-07T05:44:41;5.22;;;1.33;;
15126;SDS011;7664;52.008;4.748;2023-08-07T05:47:09;5.63;;;2.08;;
15126;SDS011;7664;52.008;4.748;2023-08-07T05:49:38;7.18;;;1.63;;
15126;SDS011;7664;52.008;4.748;2023-08-07T05:52:06;8.65;;;2.25;;
15126;SDS011;7664;52.008;4.748;2023-08-07T05:54:35;6.07;;;1.77;;
15126;SDS011;7664;52.008;4.748;2023-08-07T05:57:05;6.88;;;1.75;;
15126;SDS011;7664;52.008;4.748;2023-08-07T05:59:34;5.82;;;2.17;;
15126;SDS011;7664;52.008;4.748;2023-08-07T06:02:03;8.15;;;1.58;;
15126;SDS011;7664;52.008;4.748;2023-08-07T06:04:32;6.13;;;2.10;;
15126;SDS011;7664;52.008;4.748;2023-08-07T06:07:00;8.88;;;2.10;;
15126;SDS011;7664;52.008;4.748;2023-08-07T06:09:29;6.82;;;2.30;;
15126;SDS011;7664;52.008;4.748;2023-08-07T06:11:57;7.80;;;1.85;;
15126;SDS011;7664;52.008;4.748;2023-08-07T06:14:27;8.00;;;2.05;;
15126;SDS011;7664;52.008;4.748;2023-08-07T06:16:55;7.78;;;1.92;;
15126;SDS011;7664;52.008;4.748;2023-08-07T06:19:24;7.70;;;1.50;;
15126;SDS011;7664;52.008;4.748;2023-08-07T06:21:58;5.22;;;1.65;;
15126;SDS011;7664;52.008;4.748;2023-08-07T06:24:27;6.30;;;1.65;;
15126;SDS011;7664;52.008;4.748;2023-08-07T06:26:55;6.15;;;1.90;;
15126;SDS011;7664;52.008;4.748;2023-08-07T06:29:24;6.00;;;1.92;;
15126;SDS011;7664;52.008;4.748;2023-08-07T06:31:53;6.60;;;2.10;;
15126;SDS011;7664;52.008;4.748;2023-08-07T06:34:22;5.68;;;2.25;;
15126;SDS011;7664;52.008;4.748;2023-08-07T06:36:51;3.90;;;1.48;;
15126;SDS011;7664;52.008;4.748;2023-08-07T06:39:19;4.28;;;1.63;;
15126;SDS011;7664;52.008;4.748;2023-08-07T06:41:47;7.90;;;2.08;;
15126;SDS011;7664;52.008;4.748;2023-08-07T06:44:19;4.55;;;2.03;;
15126;SDS011;7664;52.008;4.748;2023-08-07T06:46:48;6.85;;;2.60;;
15126;SDS011;7664;52.008;4.748;2023-08-07T06:49:17;6.88;;;2.13;;
15126;SDS011;7664;52.008;4.748;2023-08-07T06:51:49;5.57;;;1.63;;
15126;SDS011;7664;52.008;4.748;2023-08-07T06:54:17;6.22;;;1.98;;
15126;SDS011;7664;52.008;4.748;2023-08-07T06:56:46;5.38;;;2.17;;
15126;SDS011;7664;52.008;4.748;2023-08-07T06:59:14;5.40;;;2.00;;
15126;SDS011;7664;52.008;4.748;2023-08-07T07:01:42;10.63;;;2.50;;
15126;SDS011;7664;52.008;4.748;2023-08-07T07:04:11;7.80;;;2.30;;
15126;SDS011;7664;52.008;4.748;2023-08-07T07:06:40;5.78;;;2.33;;
15126;SDS011;7664;52.008;4.748;2023-08-07T07:09:09;8.68;;;2.55;;
15126;SDS011;7664;52.008;4.748;2023-08-07T07:11:42;5.88;;;1.98;;
15126;SDS011;7664;52.008;4.748;2023-08-07T07:14:11;10.00;;;1.85;;
15126;SDS011;7664;52.008;4.748;2023-08-07T07:16:39;4.80;;;1.63;;
15126;SDS011;7664;52.008;4.748;2023-08-07T07:19:08;3.65;;;1.35;;
15126;SDS011;7664;52.008;4.748;2023-08-07T07:21:37;7.10;;;1.83;;
15126;SDS011;7664;52.008;4.748;2023-08-07T07:24:07;5.35;;;1.70;;
15126;SDS011;7664;52.008;4.748;2023-08-07T07:26:35;5.07;;;1.63;;
15126;SDS011;7664;52.008;4.748;2023-08-07T07:29:04;5.78;;;1.45;;
15126;SDS011;7664;52.008;4.748;2023-08-07T07:31:33;5.10;;;1.92;;
15126;SDS011;7664;52.008;4.748;2023-08-07T07:34:02;5.20;;;1.70;;
15126;SDS011;7664;52.008;4.748;2023-08-07T07:36:31;4.97;;;1.52;;
15126;SDS011;7664;52.008;4.748;2023-08-07T07:38:59;2.60;;;1.48;;
15126;SDS011;7664;52.008;4.748;2023-08-07T07:41:29;6.70;;;1.38;;
15126;SDS011;7664;52.008;4.748;2023-08-07T07:43:57;6.53;;;1.58;;
15126;SDS011;7664;52.008;4.748;2023-08-07T07:46:25;7.78;;;1.23;;
15126;SDS011;7664;52.008;4.748;2023-08-07T07:48:54;5.65;;;1.55;;
15126;SDS011;7664;52.008;4.748;2023-08-07T07:51:23;5.72;;;1.60;;
15126;SDS011;7664;52.008;4.748;2023-08-07T07:53:52;11.70;;;1.58;;
15126;SDS011;7664;52.008;4.748;2023-08-07T07:56:40;6.20;;;1.63;;
15126;SDS011;7664;52.008;4.748;2023-08-07T07:59:08;4.35;;;1.10;;
15126;SDS011;7664;52.008;4.748;2023-08-07T08:01:37;2.45;;;1.25;;
15126;SDS011;7664;52.008;4.748;2023-08-07T08:04:06;5.05;;;1.23;;
15126;SDS011;7664;52.008;4.748;2023-08-07T08:06:36;6.25;;;1.38;;
15126;SDS011;7664;52.008;4.748;2023-08-07T08:09:05;6.53;;;1.40;;
15126;SDS011;7664;52.008;4.748;2023-08-07T08:11:36;3.42;;;1.23;;
15126;SDS011;7664;52.008;4.748;2023-08-07T08:14:06;9.38;;;1.70;;
15126;SDS011;7664;52.008;4.748;2023-08-07T08:16:35;4.43;;;1.10;;
15126;SDS011;7664;52.008;4.748;2023-08-07T08:19:05;5.88;;;1.10;;
15126;SDS011;7664;52.008;4.748;2023-08-07T08:21:36;4.38;;;1.52;;
15126;SDS011;7664;52.008;4.748;2023-08-07T08:24:07;5.53;;;1.40;;
15126;SDS011;7664;52.008;4.748;2023-08-07T08:26:35;4.97;;;1.30;;
15126;SDS011;7664;52.008;4.748;2023-08-07T08:29:06;4.95;;;1.60;;
15126;SDS011;7664;52.008;4.748;2023-08-07T08:31:36;3.40;;;1.30;;
15126;SDS011;7664;52.008;4.748;2023-08-07T08:34:04;4.85;;;0.90;;
15126;SDS011;7664;52.008;4.748;2023-08-07T08:36:33;5.55;;;1.20;;
15126;SDS011;7664;52.008;4.748;2023-08-07T08:39:01;3.60;;;1.05;;
15126;SDS011;7664;52.008;4.748;2023-08-07T08:41:31;6.70;;;1.10;;
15126;SDS011;7664;52.008;4.748;2023-08-07T08:43:59;4.72;;;0.80;;
15126;SDS011;7664;52.008;4.748;2023-08-07T08:46:30;4.10;;;1.13;;
15126;SDS011;7664;52.008;4.748;2023-08-07T08:48:59;5.60;;;1.20;;
15126;SDS011;7664;52.008;4.748;2023-08-07T08:51:29;4.65;;;1.15;;
15126;SDS011;7664;52.008;4.748;2023-08-07T08:53:58;1.45;;;0.82;;
15126;SDS011;7664;52.008;4.748;2023-08-07T08:56:28;6.07;;;1.58;;
15126;SDS011;7664;52.008;4.748;2023-08-07T08:58:56;3.55;;;1.00;;
15126;SDS011;7664;52.008;4.748;2023-08-07T09:01:25;4.10;;;1.30;;
15126;SDS011;7664;52.008;4.748;2023-08-07T09:03:55;1.17;;;0.77;;
15126;SDS011;7664;52.008;4.748;2023-08-07T09:06:24;3.10;;;1.30;;
15126;SDS011;7664;52.008;4.748;2023-08-07T09:08:53;3.13;;;0.88;;
15126;SDS011;7664;52.008;4.748;2023-08-07T09:11:23;4.78;;;1.88;;
15126;SDS011;7664;52.008;4.748;2023-08-07T09:13:52;3.85;;;1.10;;
15126;SDS011;7664;52.008;4.748;2023-08-07T09:16:24;3.53;;;1.20;;
15126;SDS011;7664;52.008;4.748;2023-08-07T09:18:56;2.70;;;1.30;;
15126;SDS011;7664;52.008;4.748;2023-08-07T09:21:24;4.15;;;1.00;;
15126;SDS011;7664;52.008;4.748;2023-08-07T09:23:53;2.53;;;1.27;;
15126;SDS011;7664;52.008;4.748;2023-08-07T09:26:22;4.60;;;1.20;;
15126;SDS011;7664;52.008;4.748;2023-08-07T09:28:51;6.90;;;0.95;;
15126;SDS011;7664;52.008;4.748;2023-08-07T09:31:20;4.57;;;1.38;;
15126;SDS011;7664;52.008;4.748;2023-08-07T09:33:49;2.38;;;0.75;;
15126;SDS011;7664;52.008;4.748;2023-08-07T09:36:18;1.67;;;0.80;;
15126;SDS011;7664;52.008;4.748;2023-08-07T09:38:50;6.10;;;1.40;;
15126;SDS011;7664;52.008;4.748;2023-08-07T09:41:18;3.85;;;1.10;;
15126;SDS011;7664;52.008;4.748;2023-08-07T09:43:46;3.72;;;1.42;;
15126;SDS011;7664;52.008;4.748;2023-08-07T09:46:15;5.70;;;1.52;;
15126;SDS011;7664;52.008;4.748;2023-08-07T09:48:47;2.35;;;0.88;;
15126;SDS011;7664;52.008;4.748;2023-08-07T09:51:15;4.40;;;0.70;;
15126;SDS011;7664;52.008;4.748;2023-08-07T09:53:46;3.30;;;1.42;;
15126;SDS011;7664;52.008;4.748;2023-08-07T09:56:15;6.63;;;1.30;;
15126;SDS011;7664;52.008;4.748;2023-08-07T09:58:46;4.45;;;1.15;;
15126;SDS011;7664;52.008;4.748;2023-08-07T10:01:15;2.38;;;0.90;;
15126;SDS011;7664;52.008;4.748;2023-08-07T10:03:45;4.88;;;1.10;;
15126;SDS011;7664;52.008;4.748;2023-08-07T10:06:14;2.65;;;0.75;;
15126;SDS011;7664;52.008;4.748;2023-08-07T10:08:43;4.78;;;1.27;;
15126;SDS011;7664;52.008;4.748;2023-08-07T10:11:13;2.60;;;1.00;;
15126;SDS011;7664;52.008;4.748;2023-08-07T10:13:42;6.70;;;1.33;;
15126;SDS011;7664;52.008;4.748;2023-08-07T10:16:11;3.83;;;1.33;;
15126;SDS011;7664;52.008;4.748;2023-08-07T10:18:40;3.53;;;1.23;;
15126;SDS011;7664;52.008;4.748;2023-08-07T10:21:08;6.53;;;1.23;;
15126;SDS011;7664;52.008;4.748;2023-08-07T10:23:38;3.10;;;0.80;;
15126;SDS011;7664;52.008;4.748;2023-08-07T10:26:07;4.43;;;1.10;;
15126;SDS011;7664;52.008;4.748;2023-08-07T10:28:38;2.33;;;0.93;;
15126;SDS011;7664;52.008;4.748;2023-08-07T10:31:07;2.53;;;1.00;;
15126;SDS011;7664;52.008;4.748;2023-08-07T10:33:37;2.83;;;0.98;;
15126;SDS011;7664;52.008;4.748;2023-08-07T10:36:08;3.50;;;1.00;;
15126;SDS011;7664;52.008;4.748;2023-08-07T10:38:37;4.82;;;1.20;;
15126;SDS011;7664;52.008;4.748;2023-08-07T10:41:06;2.50;;;0.93;;
15126;SDS011;7664;52.008;4.748;2023-08-07T10:43:40;2.72;;;0.80;;
15126;SDS011;7664;52.008;4.748;2023-08-07T10:46:09;5.30;;;1.27;;
15126;SDS011;7664;52.008;4.748;2023-08-07T10:48:38;5.20;;;1.23;;
15126;SDS011;7664;52.008;4.748;2023-08-07T10:51:09;2.40;;;0.93;;
15126;SDS011;7664;52.008;4.748;2023-08-07T10:53:40;2.83;;;0.98;;
15126;SDS011;7664;52.008;4.748;2023-08-07T10:56:11;4.85;;;1.05;;
15126;SDS011;7664;52.008;4.748;2023-08-07T10:58:41;9.40;;;1.38;;
15126;SDS011;7664;52.008;4.748;2023-08-07T11:01:27;2.38;;;1.02;;
15126;SDS011;7664;52.008;4.748;2023-08-07T11:03:56;3.47;;;1.00;;
15126;SDS011;7664;52.008;4.748;2023-08-07T11:06:25;5.47;;;1.13;;
15126;SDS011;7664;52.008;4.748;2023-08-07T11:08:54;3.13;;;1.13;;
15126;SDS011;7664;52.008;4.748;2023-08-07T11:11:22;3.05;;;1.05;;
15126;SDS011;7664;52.008;4.748;2023-08-07T11:13:52;3.45;;;0.98;;
15126;SDS011;7664;52.008;4.748;2023-08-07T11:16:21;5.97;;;1.17;;
15126;SDS011;7664;52.008;4.748;2023-08-07T11:18:49;4.47;;;0.93;;
15126;SDS011;7664;52.008;4.748;2023-08-07T11:21:18;5.35;;;1.50;;
15126;SDS011;7664;52.008;4.748;2023-08-07T11:23:47;3.28;;;0.85;;
15126;SDS011;7664;52.008;4.748;2023-08-07T11:26:16;5.40;;;1.33;;
15126;SDS011;7664;52.008;4.748;2023-08-07T11:28:49;2.63;;;1.02;;
15126;SDS011;7664;52.008;4.748;2023-08-07T11:31:18;3.38;;;1.00;;
15126;SDS011;7664;52.008;4.748;2023-08-07T11:33:49;4.93;;;1.00;;
15126;SDS011;7664;52.008;4.748;2023-08-07T11:36:18;2.33;;;0.85;;
15126;SDS011;7664;52.008;4.748;2023-08-07T11:38:46;2.47;;;0.90;;
15126;SDS011;7664;52.008;4.748;2023-08-07T11:41:15;1.60;;;0.90;;
15126;SDS011;7664;52.008;4.748;2023-08-07T11:43:44;2.53;;;1.00;;
15126;SDS011;7664;52.008;4.748;2023-08-07T11:46:13;2.70;;;0.85;;
15126;SDS011;7664;52.008;4.748;2023-08-07T11:48:43;6.32;;;1.65;;
15126;SDS011;7664;52.008;4.748;2023-08-07T11:51:12;3.30;;;1.15;;
15126;SDS011;7664;52.008;4.748;2023-08-07T11:53:41;2.22;;;1.10;;
15126;SDS011;7664;52.008;4.748;2023-08-07T11:56:10;2.60;;;1.08;;
15126;SDS011;7664;52.008;4.748;2023-08-07T11:58:41;3.50;;;1.20;;
15126;SDS011;7664;52.008;4.748;2023-08-07T12:01:13;4.20;;;1.38;;
15126;SDS011;7664;52.008;4.748;2023-08-07T12:03:51;1.38;;;0.75;;
15126;SDS011;7664;52.008;4.748;2023-08-07T12:06:21;5.30;;;1.10;;
15126;SDS011;7664;52.008;4.748;2023-08-07T12:08:49;1.58;;;0.88;;
15126;SDS011;7664;52.008;4.748;2023-08-07T12:11:18;5.28;;;0.88;;
15126;SDS011;7664;52.008;4.748;2023-08-07T12:13:47;2.78;;;1.20;;
15126;SDS011;7664;52.008;4.748;2023-08-07T12:16:16;1.65;;;1.00;;
15126;SDS011;7664;52.008;4.748;2023-08-07T12:18:45;3.65;;;1.00;;
15126;SDS011;7664;52.008;4.748;2023-08-07T12:21:15;2.58;;;1.10;;
15126;SDS011;7664;52.008;4.748;2023-08-07T12:23:45;3.10;;;1.00;;
15126;SDS011;7664;52.008;4.748;2023-08-07T12:26:14;2.75;;;0.98;;
15126;SDS011;7664;52.008;4.748;2023-08-07T12:28:42;3.80;;;1.40;;
15126;SDS011;7664;52.008;4.748;2023-08-07T12:31:11;2.88;;;1.40;;
15126;SDS011;7664;52.008;4.748;2023-08-07T12:33:39;2.40;;;1.02;;
15126;SDS011;7664;52.008;4.748;2023-08-07T12:36:08;4.43;;;1.20;;
15126;SDS011;7664;52.008;4.748;2023-08-07T12:38:41;8.90;;;1.35;;
15126;SDS011;7664;52.008;4.748;2023-08-07T12:41:09;2.45;;;1.00;;
15126;SDS011;7664;52.008;4.748;2023-08-07T12:43:41;4.20;;;1.15;;
15126;SDS011;7664;52.008;4.748;2023-08-07T12:46:09;3.00;;;1.20;;
15126;SDS011;7664;52.008;4.748;2023-08-07T12:48:40;4.32;;;0.90;;
15126;SDS011;7664;52.008;4.748;2023-08-07T12:51:09;1.80;;;0.73;;
15126;SDS011;7664;52.008;4.748;2023-08-07T12:53:37;5.35;;;1.30;;
15126;SDS011;7664;52.008;4.748;2023-08-07T12:56:06;1.95;;;0.82;;
15126;SDS011;7664;52.008;4.748;2023-08-07T12:58:35;3.85;;;1.10;;
15126;SDS011;7664;52.008;4.748;2023-08-07T13:01:08;3.22;;;1.00;;
15126;SDS011;7664;52.008;4.748;2023-08-07T13:03:37;3.22;;;1.10;;
15126;SDS011;7664;52.008;4.748;2023-08-07T13:06:05;3.03;;;1.38;;
15126;SDS011;7664;52.008;4.748;2023-08-07T13:08:35;3.00;;;1.10;;
15126;SDS011;7664;52.008;4.748;2023-08-07T13:11:04;2.45;;;0.95;;
15126;SDS011;7664;52.008;4.748;2023-08-07T13:13:35;3.40;;;1.05;;
15126;SDS011;7664;52.008;4.748;2023-08-07T13:16:04;1.60;;;1.05;;
15126;SDS011;7664;52.008;4.748;2023-08-07T13:18:33;4.07;;;1.27;;
15126;SDS011;7664;52.008;4.748;2023-08-07T13:21:01;2.72;;;0.98;;
15126;SDS011;7664;52.008;4.748;2023-08-07T13:23:30;4.15;;;1.30;;
15126;SDS011;7664;52.008;4.748;2023-08-07T13:25:58;2.35;;;1.10;;
15126;SDS011;7664;52.008;4.748;2023-08-07T13:28:27;2.15;;;0.90;;
15126;SDS011;7664;52.008;4.748;2023-08-07T13:30:56;2.70;;;1.25;;
15126;SDS011;7664;52.008;4.748;2023-08-07T13:33:25;2.83;;;1.00;;
15126;SDS011;7664;52.008;4.748;2023-08-07T13:35:53;2.10;;;1.45;;
15126;SDS011;7664;52.008;4.748;2023-08-07T13:38:21;3.35;;;1.38;;
15126;SDS011;7664;52.008;4.748;2023-08-07T13:40:50;3.38;;;1.05;;
15126;SDS011;7664;52.008;4.748;2023-08-07T13:43:18;2.58;;;1.63;;
15126;SDS011;7664;52.008;4.748;2023-08-07T13:45:47;4.10;;;1.27;;
15126;SDS011;7664;52.008;4.748;2023-08-07T13:48:18;5.63;;;1.30;;
15126;SDS011;7664;52.008;4.748;2023-08-07T13:50:47;5.93;;;1.80;;
15126;SDS011;7664;52.008;4.748;2023-08-07T13:53:15;3.03;;;1.48;;
15126;SDS011;7664;52.008;4.748;2023-08-07T13:55:44;3.58;;;1.50;;
15126;SDS011;7664;52.008;4.748;2023-08-07T13:58:12;2.50;;;1.70;;
15126;SDS011;7664;52.008;4.748;2023-08-07T14:00:42;2.90;;;1.50;;
15126;SDS011;7664;52.008;4.748;2023-08-07T14:03:10;5.20;;;1.48;;
15126;SDS011;7664;52.008;4.748;2023-08-07T14:05:41;5.88;;;1.65;;
15126;SDS011;7664;52.008;4.748;2023-08-07T14:08:09;2.35;;;1.33;;
15126;SDS011;7664;52.008;4.748;2023-08-07T14:10:38;2.50;;;1.45;;
15126;SDS011;7664;52.008;4.748;2023-08-07T14:13:08;2.35;;;1.48;;
15126;SDS011;7664;52.008;4.748;2023-08-07T14:15:38;1.83;;;1.30;;
15126;SDS011;7664;52.008;4.748;2023-08-07T14:18:06;3.40;;;1.58;;
15126;SDS011;7664;52.008;4.748;2023-08-07T14:20:35;3.70;;;1.30;;
15126;SDS011;7664;52.008;4.748;2023-08-07T14:23:24;2.80;;;1.33;;
15126;SDS011;7664;52.008;4.748;2023-08-07T14:25:55;2.70;;;1.58;;
15126;SDS011;7664;52.008;4.748;2023-08-07T14:28:24;2.88;;;1.38;;
15126;SDS011;7664;52.008;4.748;2023-08-07T14:30:56;3.30;;;1.70;;
15126;SDS011;7664;52.008;4.748;2023-08-07T14:33:25;4.50;;;1.70;;
15126;SDS011;7664;52.008;4.748;2023-08-07T14:35:53;3.45;;;1.45;;
15126;SDS011;7664;52.008;4.748;2023-08-07T14:38:22;4.30;;;2.10;;
15126;SDS011;7664;52.008;4.748;2023-08-07T14:40:52;1.85;;;1.40;;
15126;SDS011;7664;52.008;4.748;2023-08-07T14:43:20;1.55;;;1.02;;
15126;SDS011;7664;52.008;4.748;2023-08-07T14:45:48;4.75;;;1.85;;
15126;SDS011;7664;52.008;4.748;2023-08-07T14:48:17;2.10;;;1.52;;
15126;SDS011;7664;52.008;4.748;2023-08-07T14:50:45;5.47;;;1.58;;
15126;SDS011;7664;52.008;4.748;2023-08-07T14:53:14;1.45;;;1.05;;
15126;SDS011;7664;52.008;4.748;2023-08-07T14:55:43;6.53;;;1.73;;
15126;SDS011;7664;52.008;4.748;2023-08-07T14:58:13;3.67;;;1.85;;
15126;SDS011;7664;52.008;4.748;2023-08-07T15:00:41;2.97;;;1.60;;
15126;SDS011;7664;52.008;4.748;2023-08-07T15:03:09;3.78;;;1.17;;
15126;SDS011;7664;52.008;4.748;2023-08-07T15:05:38;2.45;;;1.23;;
15126;SDS011;7664;52.008;4.748;2023-08-07T15:08:06;3.40;;;1.52;;
15126;SDS011;7664;52.008;4.748;2023-08-07T15:10:35;1.88;;;1.40;;
15126;SDS011;7664;52.008;4.748;2023-08-07T15:13:06;1.42;;;1.17;;